Terminal Aerodrome Forecast
Issued by NWS

Home | Current Version | Previous Version | Text Only | Print | Product List | Glossary On
Versions: 1 2 3 4 5 6 7 8 9 10 11 12 13 14 15 16
000
FTUS44 KBMX 210700 AAA
TAFANB
TAF AMD
KANB 210722Z 2107/2206 04003KT P6SM OVC012
      TEMPO 2108/2110 OVC007
     FM212000 05004KT P6SM OVC007
     FM220000 07004KT P6SM OVC015=

USA.gov is the U.S. government's official web portal to all federal, state and local government web resources and services.